sensor_id;sensor_type;location;lat;lon;timestamp;temperature;humidity
30336;DHT22;17142;47.990;7.846;2024-03-07T07:30:21;5.10;99.90
30336;DHT22;17142;47.990;7.846;2024-03-07T07:32:52;5.20;99.90
30336;DHT22;17142;47.990;7.846;2024-03-07T07:35:21;5.30;99.90
30336;DHT22;17142;47.990;7.846;2024-03-07T07:37:49;5.40;99.90
30336;DHT22;17142;47.990;7.846;2024-03-07T07:40:20;5.60;99.90
30336;DHT22;17142;47.990;7.846;2024-03-07T07:42:49;5.80;99.90
30336;DHT22;17142;47.990;7.846;2024-03-07T07:45:17;5.80;99.90
30336;DHT22;17142;47.990;7.846;2024-03-07T07:47:44;5.90;99.90
30336;DHT22;17142;47.990;7.846;2024-03-07T07:50:11;5.90;99.90
30336;DHT22;17142;47.990;7.846;2024-03-07T07:52:44;6.00;99.90
30336;DHT22;17142;47.990;7.846;2024-03-07T07:55:16;6.20;99.90
30336;DHT22;17142;47.990;7.846;2024-03-07T07:57:55;6.20;99.90
30336;DHT22;17142;47.990;7.846;2024-03-07T08:00:22;6.40;99.90
30336;DHT22;17142;47.990;7.846;2024-03-07T08:05:25;6.50;99.90
30336;DHT22;17142;47.990;7.846;2024-03-07T08:07:52;6.30;99.90
30336;DHT22;17142;47.990;7.846;2024-03-07T08:10:18;6.30;99.90
30336;DHT22;17142;47.990;7.846;2024-03-07T08:12:49;6.50;99.90
30336;DHT22;17142;47.990;7.846;2024-03-07T08:15:15;6.70;99.90
30336;DHT22;17142;47.990;7.846;2024-03-07T08:17:45;6.80;99.90
30336;DHT22;17142;47.990;7.846;2024-03-07T08:20:11;6.80;99.90
30336;DHT22;17142;47.990;7.846;2024-03-07T08:22:43;6.90;99.90
30336;DHT22;17142;47.990;7.846;2024-03-07T08:25:19;7.00;99.90
30336;DHT22;17142;47.990;7.846;2024-03-07T08:27:49;6.70;99.90
30336;DHT22;17142;47.990;7.846;2024-03-07T08:30:15;6.40;99.90
30336;DHT22;17142;47.990;7.846;2024-03-07T08:32:43;6.20;99.90
30336;DHT22;17142;47.990;7.846;2024-03-07T08:35:09;6.10;99.90
30336;DHT22;17142;47.990;7.846;2024-03-07T08:37:37;6.10;99.90
30336;DHT22;17142;47.990;7.846;2024-03-07T08:40:06;6.10;99.90
30336;DHT22;17142;47.990;7.846;2024-03-07T08:42:39;6.30;99.90
30336;DHT22;17142;47.990;7.846;2024-03-07T08:45:07;6.40;99.90
30336;DHT22;17142;47.990;7.846;2024-03-07T08:47:37;6.40;99.90
30336;DHT22;17142;47.990;7.846;2024-03-07T08:50:04;6.20;99.90
30336;DHT22;17142;47.990;7.846;2024-03-07T08:52:34;6.20;99.90
30336;DHT22;17142;47.990;7.846;2024-03-07T08:55:05;6.30;99.90
30336;DHT22;17142;47.990;7.846;2024-03-07T08:57:31;6.40;99.90
30336;DHT22;17142;47.990;7.846;2024-03-07T08:59:57;6.30;99.90
30336;DHT22;17142;47.990;7.846;2024-03-07T09:02:23;6.20;99.90
30336;DHT22;17142;47.990;7.846;2024-03-07T09:04:51;6.10;99.90
30336;DHT22;17142;47.990;7.846;2024-03-07T09:07:17;6.10;99.90
30336;DHT22;17142;47.990;7.846;2024-03-07T09:09:43;6.00;99.90
30336;DHT22;17142;47.990;7.846;2024-03-07T09:12:11;6.00;99.90
30336;DHT22;17142;47.990;7.846;2024-03-07T09:14:36;6.20;99.90
30336;DHT22;17142;47.990;7.846;2024-03-07T09:17:05;6.30;99.90
30336;DHT22;17142;47.990;7.846;2024-03-07T09:19:31;6.30;99.90
30336;DHT22;17142;47.990;7.846;2024-03-07T09:21:57;6.30;99.90
30336;DHT22;17142;47.990;7.846;2024-03-07T09:24:22;6.30;99.90
30336;DHT22;17142;47.990;7.846;2024-03-07T09:26:52;6.40;99.90
30336;DHT22;17142;47.990;7.846;2024-03-07T09:29:20;6.60;99.90
30336;DHT22;17142;47.990;7.846;2024-03-07T09:31:49;6.50;99.90
30336;DHT22;17142;47.990;7.846;2024-03-07T09:34:18;6.50;99.90
30336;DHT22;17142;47.990;7.846;2024-03-07T09:36:44;6.40;99.90
30336;DHT22;17142;47.990;7.846;2024-03-07T09:39:11;6.50;99.90
30336;DHT22;17142;47.990;7.846;2024-03-07T09:41:39;6.50;99.90
30336;DHT22;17142;47.990;7.846;2024-03-07T09:44:06;6.60;99.90
30336;DHT22;17142;47.990;7.846;2024-03-07T09:46:37;6.80;99.90
30336;DHT22;17142;47.990;7.846;2024-03-07T09:49:04;7.30;99.90
30336;DHT22;17142;47.990;7.846;2024-03-07T09:51:34;7.50;99.90
30336;DHT22;17142;47.990;7.846;2024-03-07T09:54:00;7.40;99.90
30336;DHT22;17142;47.990;7.846;2024-03-07T09:56:30;7.70;99.90
30336;DHT22;17142;47.990;7.846;2024-03-07T09:59:03;7.70;99.90
30336;DHT22;17142;47.990;7.846;2024-03-07T10:01:34;7.50;99.90
30336;DHT22;17142;47.990;7.846;2024-03-07T10:04:03;7.50;99.90
30336;DHT22;17142;47.990;7.846;2024-03-07T10:06:42;7.70;99.90
30336;DHT22;17142;47.990;7.846;2024-03-07T10:09:11;8.10;99.90
30336;DHT22;17142;47.990;7.846;2024-03-07T10:11:43;8.10;99.90
30336;DHT22;17142;47.990;7.846;2024-03-07T10:14:11;8.00;99.90
30336;DHT22;17142;47.990;7.846;2024-03-07T10:16:37;7.70;99.90
30336;DHT22;17142;47.990;7.846;2024-03-07T10:19:09;7.70;99.90
30336;DHT22;17142;47.990;7.846;2024-03-07T10:21:41;7.70;99.90
30336;DHT22;17142;47.990;7.846;2024-03-07T10:24:07;8.00;99.90
30336;DHT22;17142;47.990;7.846;2024-03-07T10:26:37;7.70;99.90
30336;DHT22;17142;47.990;7.846;2024-03-07T10:29:04;7.80;99.90
30336;DHT22;17142;47.990;7.846;2024-03-07T10:31:33;7.80;99.90
30336;DHT22;17142;47.990;7.846;2024-03-07T10:34:05;7.90;99.90
30336;DHT22;17142;47.990;7.846;2024-03-07T10:36:35;8.10;99.90
30336;DHT22;17142;47.990;7.846;2024-03-07T10:39:01;8.00;99.90
30336;DHT22;17142;47.990;7.846;2024-03-07T10:41:49;7.40;99.90
30336;DHT22;17142;47.990;7.846;2024-03-07T10:44:24;7.10;99.90
30336;DHT22;17142;47.990;7.846;2024-03-07T10:46:59;7.00;99.90
30336;DHT22;17142;47.990;7.846;2024-03-07T10:49:34;6.90;99.90
30336;DHT22;17142;47.990;7.846;2024-03-07T10:52:14;7.00;99.90
30336;DHT22;17142;47.990;7.846;2024-03-07T10:57:28;7.10;99.90
30336;DHT22;17142;47.990;7.846;2024-03-07T11:00:03;7.30;99.90
30336;DHT22;17142;47.990;7.846;2024-03-07T11:02:59;7.20;99.90
30336;DHT22;17142;47.990;7.846;2024-03-07T11:05:26;7.30;99.90
30336;DHT22;17142;47.990;7.846;2024-03-07T11:07:56;7.50;99.90
30336;DHT22;17142;47.990;7.846;2024-03-07T11:10:23;7.70;99.90
30336;DHT22;17142;47.990;7.846;2024-03-07T11:12:49;7.90;99.90
30336;DHT22;17142;47.990;7.846;2024-03-07T11:15:19;8.30;99.90
30336;DHT22;17142;47.990;7.846;2024-03-07T11:17:49;8.60;99.90
30336;DHT22;17142;47.990;7.846;2024-03-07T11:20:19;8.80;99.90
30336;DHT22;17142;47.990;7.846;2024-03-07T11:22:46;8.90;99.90
30336;DHT22;17142;47.990;7.846;2024-03-07T11:25:12;8.70;99.90
30336;DHT22;17142;47.990;7.846;2024-03-07T11:27:38;8.90;99.90
30336;DHT22;17142;47.990;7.846;2024-03-07T11:30:05;9.00;99.90
30336;DHT22;17142;47.990;7.846;2024-03-07T11:32:35;9.10;99.90
30336;DHT22;17142;47.990;7.846;2024-03-07T11:35:04;9.20;99.90
30336;DHT22;17142;47.990;7.846;2024-03-07T11:37:40;9.10;99.90
30336;DHT22;17142;47.990;7.846;2024-03-07T11:40:58;9.00;99.90
30336;DHT22;17142;47.990;7.846;2024-03-07T11:42:57;9.40;99.90
30336;DHT22;17142;47.990;7.846;2024-03-07T11:45:26;9.40;99.90
30336;DHT22;17142;47.990;7.846;2024-03-07T11:47:55;9.30;99.90
30336;DHT22;17142;47.990;7.846;2024-03-07T11:50:26;9.50;99.90
30336;DHT22;17142;47.990;7.846;2024-03-07T11:52:55;9.30;99.90
30336;DHT22;17142;47.990;7.846;2024-03-07T11:55:24;9.40;99.90
30336;DHT22;17142;47.990;7.846;2024-03-07T11:57:52;9.20;99.90
30336;DHT22;17142;47.990;7.846;2024-03-07T12:00:20;9.20;99.90
30336;DHT22;17142;47.990;7.846;2024-03-07T12:02:49;9.00;99.90
30336;DHT22;17142;47.990;7.846;2024-03-07T12:05:15;9.00;99.90
30336;DHT22;17142;47.990;7.846;2024-03-07T12:07:42;9.10;99.90
30336;DHT22;17142;47.990;7.846;2024-03-07T12:10:09;9.30;99.90
30336;DHT22;17142;47.990;7.846;2024-03-07T12:12:35;9.50;99.90
30336;DHT22;17142;47.990;7.846;2024-03-07T12:15:07;9.70;99.90
30336;DHT22;17142;47.990;7.846;2024-03-07T12:17:42;9.90;99.90
30336;DHT22;17142;47.990;7.846;2024-03-07T12:20:08;10.00;99.90
30336;DHT22;17142;47.990;7.846;2024-03-07T12:22:50;9.90;99.90
30336;DHT22;17142;47.990;7.846;2024-03-07T12:25:19;9.80;99.90
30336;DHT22;17142;47.990;7.846;2024-03-07T12:27:58;9.90;99.90
30336;DHT22;17142;47.990;7.846;2024-03-07T12:30:26;9.90;99.90
30336;DHT22;17142;47.990;7.846;2024-03-07T12:33:01;10.20;99.90
30336;DHT22;17142;47.990;7.846;2024-03-07T12:35:30;10.30;99.90
30336;DHT22;17142;47.990;7.846;2024-03-07T12:37:58;10.40;99.90
30336;DHT22;17142;47.990;7.846;2024-03-07T12:40:23;9.90;99.90
30336;DHT22;17142;47.990;7.846;2024-03-07T12:42:52;9.60;99.90
30336;DHT22;17142;47.990;7.846;2024-03-07T12:45:21;9.60;99.90
30336;DHT22;17142;47.990;7.846;2024-03-07T12:47:47;9.60;99.90
30336;DHT22;17142;47.990;7.846;2024-03-07T12:50:18;9.90;99.90
30336;DHT22;17142;47.990;7.846;2024-03-07T12:52:49;9.90;99.90
30336;DHT22;17142;47.990;7.846;2024-03-07T12:55:16;10.30;99.90
30336;DHT22;17142;47.990;7.846;2024-03-07T12:57:47;10.60;99.90
30336;DHT22;17142;47.990;7.846;2024-03-07T13:00:16;10.70;99.90
30336;DHT22;17142;47.990;7.846;2024-03-07T13:02:48;11.00;99.90
30336;DHT22;17142;47.990;7.846;2024-03-07T13:05:14;10.90;99.90
30336;DHT22;17142;47.990;7.846;2024-03-07T13:07:47;11.10;99.90
30336;DHT22;17142;47.990;7.846;2024-03-07T13:10:14;11.10;99.90
30336;DHT22;17142;47.990;7.846;2024-03-07T13:12:42;11.30;99.90
30336;DHT22;17142;47.990;7.846;2024-03-07T13:15:11;11.50;99.90
30336;DHT22;17142;47.990;7.846;2024-03-07T13:17:37;11.50;99.90
30336;DHT22;17142;47.990;7.846;2024-03-07T13:20:08;11.30;99.90
30336;DHT22;17142;47.990;7.846;2024-03-07T13:22:45;11.30;99.90
30336;DHT22;17142;47.990;7.846;2024-03-07T13:25:25;11.10;99.90
30336;DHT22;17142;47.990;7.846;2024-03-07T13:28:13;11.10;99.90
30336;DHT22;17142;47.990;7.846;2024-03-07T13:30:44;11.20;99.90
30336;DHT22;17142;47.990;7.846;2024-03-07T13:33:13;11.20;99.90
30336;DHT22;17142;47.990;7.846;2024-03-07T13:35:40;11.10;99.90
30336;DHT22;17142;47.990;7.846;2024-03-07T13:38:08;10.90;99.90
30336;DHT22;17142;47.990;7.846;2024-03-07T13:40:37;10.90;99.90
30336;DHT22;17142;47.990;7.846;2024-03-07T13:43:07;10.90;99.90
30336;DHT22;17142;47.990;7.846;2024-03-07T13:45:34;10.90;99.90
30336;DHT22;17142;47.990;7.846;2024-03-07T13:48:10;10.80;99.90
30336;DHT22;17142;47.990;7.846;2024-03-07T13:50:38;10.80;99.90
30336;DHT22;17142;47.990;7.846;2024-03-07T13:53:06;10.90;99.90
30336;DHT22;17142;47.990;7.846;2024-03-07T14:28:42;9.70;99.90
30336;DHT22;17142;47.990;7.846;2024-03-07T14:31:13;9.70;99.90
30336;DHT22;17142;47.990;7.846;2024-03-07T14:36:53;9.50;99.90
30336;DHT22;17142;47.990;7.846;2024-03-07T14:39:19;9.60;99.90
30336;DHT22;17142;47.990;7.846;2024-03-07T14:44:18;10.00;99.90
30336;DHT22;17142;47.990;7.846;2024-03-07T14:46:47;9.80;99.90
30336;DHT22;17142;47.990;7.846;2024-03-07T14:49:17;9.70;99.90
30336;DHT22;17142;47.990;7.846;2024-03-07T14:51:47;9.70;99.90
30336;DHT22;17142;47.990;7.846;2024-03-07T14:54:19;9.70;99.90
30336;DHT22;17142;47.990;7.846;2024-03-07T14:56:45;9.70;99.90
30336;DHT22;17142;47.990;7.846;2024-03-07T14:59:13;9.80;99.90
30336;DHT22;17142;47.990;7.846;2024-03-07T15:01:41;9.90;99.90
30336;DHT22;17142;47.990;7.846;2024-03-07T15:04:07;10.00;99.90
30336;DHT22;17142;47.990;7.846;2024-03-07T15:06:38;9.80;99.90
30336;DHT22;17142;47.990;7.846;2024-03-07T15:09:07;9.70;99.90
30336;DHT22;17142;47.990;7.846;2024-03-07T15:11:36;9.70;99.90
30336;DHT22;17142;47.990;7.846;2024-03-07T15:14:11;9.80;99.90
30336;DHT22;17142;47.990;7.846;2024-03-07T15:16:38;9.90;99.90
30336;DHT22;17142;47.990;7.846;2024-03-07T15:19:04;9.90;99.90
30336;DHT22;17142;47.990;7.846;2024-03-07T15:21:31;9.80;99.90
30336;DHT22;17142;47.990;7.846;2024-03-07T15:23:59;9.80;99.90
30336;DHT22;17142;47.990;7.846;2024-03-07T15:26:26;9.80;99.90
30336;DHT22;17142;47.990;7.846;2024-03-07T15:28:57;9.80;99.90
30336;DHT22;17142;47.990;7.846;2024-03-07T15:31:25;9.70;99.90
30336;DHT22;17142;47.990;7.846;2024-03-07T15:33:50;9.60;99.90
30336;DHT22;17142;47.990;7.846;2024-03-07T15:36:22;9.60;99.90
30336;DHT22;17142;47.990;7.846;2024-03-07T15:38:48;9.50;99.90
30336;DHT22;17142;47.990;7.846;2024-03-07T15:41:14;9.60;99.90
30336;DHT22;17142;47.990;7.846;2024-03-07T15:43:40;9.60;99.90
30336;DHT22;17142;47.990;7.846;2024-03-07T15:46:08;9.60;99.90
30336;DHT22;17142;47.990;7.846;2024-03-07T15:48:36;9.60;99.90
30336;DHT22;17142;47.990;7.846;2024-03-07T15:51:02;9.50;99.90
30336;DHT22;17142;47.990;7.846;2024-03-07T15:53:29;9.50;99.90
30336;DHT22;17142;47.990;7.846;2024-03-07T15:55:54;9.40;99.90
30336;DHT22;17142;47.990;7.846;2024-03-07T15:58:20;9.40;99.90
30336;DHT22;17142;47.990;7.846;2024-03-07T16:00:46;9.40;99.90
30336;DHT22;17142;47.990;7.846;2024-03-07T16:03:13;9.40;99.90
30336;DHT22;17142;47.990;7.846;2024-03-07T16:05:41;9.50;99.90
30336;DHT22;17142;47.990;7.846;2024-03-07T16:08:10;9.50;99.90
30336;DHT22;17142;47.990;7.846;2024-03-07T16:10:38;9.50;99.90
30336;DHT22;17142;47.990;7.846;2024-03-07T16:13:07;9.40;99.90
30336;DHT22;17142;47.990;7.846;2024-03-07T16:15:37;9.30;99.90
30336;DHT22;17142;47.990;7.846;2024-03-07T16:18:03;9.20;99.90
30336;DHT22;17142;47.990;7.846;2024-03-07T16:20:29;9.10;99.90
30336;DHT22;17142;47.990;7.846;2024-03-07T16:22:56;9.10;99.90
30336;DHT22;17142;47.990;7.846;2024-03-07T16:25:25;9.00;99.90
30336;DHT22;17142;47.990;7.846;2024-03-07T16:27:52;9.00;99.90
30336;DHT22;17142;47.990;7.846;2024-03-07T16:30:23;9.00;99.90
30336;DHT22;17142;47.990;7.846;2024-03-07T16:32:52;9.00;99.90
30336;DHT22;17142;47.990;7.846;2024-03-07T16:35:28;8.90;99.90
30336;DHT22;17142;47.990;7.846;2024-03-07T16:37:57;8.80;99.90
30336;DHT22;17142;47.990;7.846;2024-03-07T16:40:24;8.80;99.90
30336;DHT22;17142;47.990;7.846;2024-03-07T16:42:59;8.70;99.90
30336;DHT22;17142;47.990;7.846;2024-03-07T16:45:28;8.70;99.90
30336;DHT22;17142;47.990;7.846;2024-03-07T16:47:58;8.60;99.90
30336;DHT22;17142;47.990;7.846;2024-03-07T16:50:29;8.50;99.90
30336;DHT22;17142;47.990;7.846;2024-03-07T16:52:59;8.50;99.90
30336;DHT22;17142;47.990;7.846;2024-03-07T16:55:30;8.50;99.90
30336;DHT22;17142;47.990;7.846;2024-03-07T16:57:56;8.40;99.90
30336;DHT22;17142;47.990;7.846;2024-03-07T17:00:23;8.40;99.90
30336;DHT22;17142;47.990;7.846;2024-03-07T17:03:04;8.40;99.90
30336;DHT22;17142;47.990;7.846;2024-03-07T17:05:36;8.30;99.90
30336;DHT22;17142;47.990;7.846;2024-03-07T17:08:07;8.30;99.90
30336;DHT22;17142;47.990;7.846;2024-03-07T17:10:35;8.20;99.90
30336;DHT22;17142;47.990;7.846;2024-03-07T17:13:06;8.20;99.90
30336;DHT22;17142;47.990;7.846;2024-03-07T17:15:38;8.10;99.90
30336;DHT22;17142;47.990;7.846;2024-03-07T17:18:07;8.10;99.90
30336;DHT22;17142;47.990;7.846;2024-03-07T17:20:35;8.00;99.90
30336;DHT22;17142;47.990;7.846;2024-03-07T17:23:01;8.00;99.90
30336;DHT22;17142;47.990;7.846;2024-03-07T17:25:27;7.90;99.90
30336;DHT22;17142;47.990;7.846;2024-03-07T17:27:56;7.90;99.90
30336;DHT22;17142;47.990;7.846;2024-03-07T17:30:26;7.80;99.90
30336;DHT22;17142;47.990;7.846;2024-03-07T17:32:55;7.80;99.90
30336;DHT22;17142;47.990;7.846;2024-03-07T17:35:24;7.70;99.90
30336;DHT22;17142;47.990;7.846;2024-03-07T17:37:51;7.70;99.90
30336;DHT22;17142;47.990;7.846;2024-03-07T17:40:17;7.80;99.90
30336;DHT22;17142;47.990;7.846;2024-03-07T17:42:47;7.80;99.90
30336;DHT22;17142;47.990;7.846;2024-03-07T17:45:27;7.70;99.90
30336;DHT22;17142;47.990;7.846;2024-03-07T17:47:55;7.60;99.90
30336;DHT22;17142;47.990;7.846;2024-03-07T17:50:33;7.50;99.90
30336;DHT22;17142;47.990;7.846;2024-03-07T17:53:00;7.50;99.90
30336;DHT22;17142;47.990;7.846;2024-03-07T17:55:26;7.40;99.90
30336;DHT22;17142;47.990;7.846;2024-03-07T17:57:52;7.30;99.90
30336;DHT22;17142;47.990;7.846;2024-03-07T18:00:19;7.30;99.90
30336;DHT22;17142;47.990;7.846;2024-03-07T18:02:58;7.20;99.90
30336;DHT22;17142;47.990;7.846;2024-03-07T18:05:27;7.10;99.90
30336;DHT22;17142;47.990;7.846;2024-03-07T18:07:57;7.00;99.90
30336;DHT22;17142;47.990;7.846;2024-03-07T18:10:23;7.00;99.90
30336;DHT22;17142;47.990;7.846;2024-03-07T18:12:50;6.90;99.90
30336;DHT22;17142;47.990;7.846;2024-03-07T18:15:20;6.90;99.90
30336;DHT22;17142;47.990;7.846;2024-03-07T18:17:47;6.80;99.90
30336;DHT22;17142;47.990;7.846;2024-03-07T18:20:16;6.60;99.90
30336;DHT22;17142;47.990;7.846;2024-03-07T18:22:44;6.60;99.90
30336;DHT22;17142;47.990;7.846;2024-03-07T18:25:13;6.40;99.90
30336;DHT22;17142;47.990;7.846;2024-03-07T18:27:44;6.20;99.90
30336;DHT22;17142;47.990;7.846;2024-03-07T18:30:12;6.00;99.90
30336;DHT22;17142;47.990;7.846;2024-03-07T18:32:38;5.90;99.90
30336;DHT22;17142;47.990;7.846;2024-03-07T18:35:06;5.70;99.90
30336;DHT22;17142;47.990;7.846;2024-03-07T18:37:34;5.60;99.90
30336;DHT22;17142;47.990;7.846;2024-03-07T18:40:03;5.60;99.90
30336;DHT22;17142;47.990;7.846;2024-03-07T18:42:36;5.50;99.90
30336;DHT22;17142;47.990;7.846;2024-03-07T18:45:05;5.40;99.90
30336;DHT22;17142;47.990;7.846;2024-03-07T18:47:41;5.40;99.90
30336;DHT22;17142;47.990;7.846;2024-03-07T18:50:11;5.30;99.90
30336;DHT22;17142;47.990;7.846;2024-03-07T18:52:37;5.20;99.90
30336;DHT22;17142;47.990;7.846;2024-03-07T18:55:07;5.10;99.90
30336;DHT22;17142;47.990;7.846;2024-03-07T18:57:51;5.10;99.90
30336;DHT22;17142;47.990;7.846;2024-03-07T19:03:06;4.90;99.90
30336;DHT22;17142;47.990;7.846;2024-03-07T19:05:38;5.00;99.90
30336;DHT22;17142;47.990;7.846;2024-03-07T19:08:08;4.80;99.90
30336;DHT22;17142;47.990;7.846;2024-03-07T19:10:43;4.60;99.90
30336;DHT22;17142;47.990;7.846;2024-03-07T19:13:09;4.60;99.90
30336;DHT22;17142;47.990;7.846;2024-03-07T19:15:45;4.70;99.90
30336;DHT22;17142;47.990;7.846;2024-03-07T19:18:11;4.80;99.90
30336;DHT22;17142;47.990;7.846;2024-03-07T19:20:41;4.80;99.90
30336;DHT22;17142;47.990;7.846;2024-03-07T19:23:07;4.90;99.90
30336;DHT22;17142;47.990;7.846;2024-03-07T19:25:43;4.90;99.90
30336;DHT22;17142;47.990;7.846;2024-03-07T19:28:10;4.80;99.90
30336;DHT22;17142;47.990;7.846;2024-03-07T19:30:45;4.70;99.90
30336;DHT22;17142;47.990;7.846;2024-03-07T19:33:16;4.60;99.90
30336;DHT22;17142;47.990;7.846;2024-03-07T19:38:13;4.50;99.90
30336;DHT22;17142;47.990;7.846;2024-03-07T19:40:41;4.60;99.90
30336;DHT22;17142;47.990;7.846;2024-03-07T19:43:07;4.50;99.90
30336;DHT22;17142;47.990;7.846;2024-03-07T19:45:38;4.50;99.90
30336;DHT22;17142;47.990;7.846;2024-03-07T19:48:04;4.50;99.90
30336;DHT22;17142;47.990;7.846;2024-03-07T19:50:30;4.40;99.90
30336;DHT22;17142;47.990;7.846;2024-03-07T19:53:02;4.40;99.90
30336;DHT22;17142;47.990;7.846;2024-03-07T19:55:28;4.20;99.90
30336;DHT22;17142;47.990;7.846;2024-03-07T19:57:58;4.00;99.90
30336;DHT22;17142;47.990;7.846;2024-03-07T20:00:28;3.90;99.90
30336;DHT22;17142;47.990;7.846;2024-03-07T20:02:58;3.60;99.90
30336;DHT22;17142;47.990;7.846;2024-03-07T20:05:25;3.50;99.90
30336;DHT22;17142;47.990;7.846;2024-03-07T20:07:56;3.40;99.90
30336;DHT22;17142;47.990;7.846;2024-03-07T20:10:25;3.30;99.90
30336;DHT22;17142;47.990;7.846;2024-03-07T20:13:00;3.10;99.90
30336;DHT22;17142;47.990;7.846;2024-03-07T20:15:27;3.10;99.90
30336;DHT22;17142;47.990;7.846;2024-03-07T20:17:53;3.10;99.90
30336;DHT22;17142;47.990;7.846;2024-03-07T20:20:19;3.00;99.90
30336;DHT22;17142;47.990;7.846;2024-03-07T20:22:50;2.90;99.90
30336;DHT22;17142;47.990;7.846;2024-03-07T20:25:18;2.90;99.90
30336;DHT22;17142;47.990;7.846;2024-03-07T20:30:11;3.00;99.90
30336;DHT22;17142;47.990;7.846;2024-03-07T20:32:37;3.00;99.90
30336;DHT22;17142;47.990;7.846;2024-03-07T20:35:04;3.00;99.90
30336;DHT22;17142;47.990;7.846;2024-03-07T20:37:40;3.10;99.90
30336;DHT22;17142;47.990;7.846;2024-03-07T20:40:09;3.10;99.90
30336;DHT22;17142;47.990;7.846;2024-03-07T20:42:35;3.00;99.90
30336;DHT22;17142;47.990;7.846;2024-03-07T20:45:08;3.00;99.90
30336;DHT22;17142;47.990;7.846;2024-03-07T20:47:38;3.00;99.90
30336;DHT22;17142;47.990;7.846;2024-03-07T20:50:10;3.10;99.90
30336;DHT22;17142;47.990;7.846;2024-03-07T20:55:06;3.20;99.90
30336;DHT22;17142;47.990;7.846;2024-03-07T20:57:33;3.10;99.90
30336;DHT22;17142;47.990;7.846;2024-03-07T20:59:58;3.00;99.90
30336;DHT22;17142;47.990;7.846;2024-03-07T21:02:24;3.00;99.90
30336;DHT22;17142;47.990;7.846;2024-03-07T21:04:53;3.10;99.90
30336;DHT22;17142;47.990;7.846;2024-03-07T21:07:19;3.10;99.90
30336;DHT22;17142;47.990;7.846;2024-03-07T21:09:47;3.00;99.90
30336;DHT22;17142;47.990;7.846;2024-03-07T21:12:12;2.90;99.90
30336;DHT22;17142;47.990;7.846;2024-03-07T21:14:38;2.80;99.90
30336;DHT22;17142;47.990;7.846;2024-03-07T21:17:06;2.70;99.90
30336;DHT22;17142;47.990;7.846;2024-03-07T21:19:36;2.60;99.90
30336;DHT22;17142;47.990;7.846;2024-03-07T21:22:05;2.50;99.90
30336;DHT22;17142;47.990;7.846;2024-03-07T21:24:32;2.30;99.90
30336;DHT22;17142;47.990;7.846;2024-03-07T21:27:00;2.10;99.90
30336;DHT22;17142;47.990;7.846;2024-03-07T21:29:26;2.10;99.90
30336;DHT22;17142;47.990;7.846;2024-03-07T21:31:53;2.00;99.90
30336;DHT22;17142;47.990;7.846;2024-03-07T21:34:19;2.00;99.90
30336;DHT22;17142;47.990;7.846;2024-03-07T21:36:44;2.00;99.90
30336;DHT22;17142;47.990;7.846;2024-03-07T21:39:10;2.00;99.90
30336;DHT22;17142;47.990;7.846;2024-03-07T21:41:36;2.10;99.90
30336;DHT22;17142;47.990;7.846;2024-03-07T21:44:01;2.20;99.90
30336;DHT22;17142;47.990;7.846;2024-03-07T21:46:27;2.20;99.90
30336;DHT22;17142;47.990;7.846;2024-03-07T21:48:56;2.10;99.90
30336;DHT22;17142;47.990;7.846;2024-03-07T21:51:22;2.00;99.90
30336;DHT22;17142;47.990;7.846;2024-03-07T21:53:48;2.00;99.90
30336;DHT22;17142;47.990;7.846;2024-03-07T21:56:13;2.10;99.90
30336;DHT22;17142;47.990;7.846;2024-03-07T21:58:39;2.10;99.90
30336;DHT22;17142;47.990;7.846;2024-03-07T22:01:07;1.90;99.90
30336;DHT22;17142;47.990;7.846;2024-03-07T22:03:37;2.00;99.90
30336;DHT22;17142;47.990;7.846;2024-03-07T22:06:05;2.00;99.90
30336;DHT22;17142;47.990;7.846;2024-03-07T22:08:33;2.00;99.90
30336;DHT22;17142;47.990;7.846;2024-03-07T22:10:59;2.00;99.90
30336;DHT22;17142;47.990;7.846;2024-03-07T22:13:25;2.00;99.90
30336;DHT22;17142;47.990;7.846;2024-03-07T22:15:51;2.10;99.90
30336;DHT22;17142;47.990;7.846;2024-03-07T22:18:16;2.10;99.90
30336;DHT22;17142;47.990;7.846;2024-03-07T22:20:46;2.30;99.90
30336;DHT22;17142;47.990;7.846;2024-03-07T22:23:12;2.30;99.90
30336;DHT22;17142;47.990;7.846;2024-03-07T22:25:40;2.30;99.90
30336;DHT22;17142;47.990;7.846;2024-03-07T22:28:05;2.20;99.90
30336;DHT22;17142;47.990;7.846;2024-03-07T22:30:31;2.10;99.90
30336;DHT22;17142;47.990;7.846;2024-03-07T22:32:57;2.10;99.90
30336;DHT22;17142;47.990;7.846;2024-03-07T22:35:22;2.00;99.90
30336;DHT22;17142;47.990;7.846;2024-03-07T22:37:49;2.00;99.90
30336;DHT22;17142;47.990;7.846;2024-03-07T22:40:21;1.90;99.90
30336;DHT22;17142;47.990;7.846;2024-03-07T22:42:54;1.80;99.90
30336;DHT22;17142;47.990;7.846;2024-03-07T22:45:22;1.80;99.90
30336;DHT22;17142;47.990;7.846;2024-03-07T22:47:48;2.00;99.90
30336;DHT22;17142;47.990;7.846;2024-03-07T22:50:17;2.00;99.90
30336;DHT22;17142;47.990;7.846;2024-03-07T22:52:45;2.00;99.90
30336;DHT22;17142;47.990;7.846;2024-03-07T22:55:11;1.90;99.90
30336;DHT22;17142;47.990;7.846;2024-03-07T22:57:39;1.90;99.90
30336;DHT22;17142;47.990;7.846;2024-03-07T23:00:06;1.90;99.90
30336;DHT22;17142;47.990;7.846;2024-03-07T23:02:32;2.10;99.90
30336;DHT22;17142;47.990;7.846;2024-03-07T23:05:01;2.00;99.90
30336;DHT22;17142;47.990;7.846;2024-03-07T23:07:27;2.00;99.90
30336;DHT22;17142;47.990;7.846;2024-03-07T23:09:52;2.00;99.90
30336;DHT22;17142;47.990;7.846;2024-03-07T23:12:20;2.00;99.90
30336;DHT22;17142;47.990;7.846;2024-03-07T23:14:46;2.00;99.90
30336;DHT22;17142;47.990;7.846;2024-03-07T23:17:14;2.00;99.90
30336;DHT22;17142;47.990;7.846;2024-03-07T23:19:41;2.00;99.90
30336;DHT22;17142;47.990;7.846;2024-03-07T23:22:11;2.10;99.90
30336;DHT22;17142;47.990;7.846;2024-03-07T23:24:36;2.00;99.90
30336;DHT22;17142;47.990;7.846;2024-03-07T23:27:05;1.90;99.90
30336;DHT22;17142;47.990;7.846;2024-03-07T23:29:30;1.80;99.90
30336;DHT22;17142;47.990;7.846;2024-03-07T23:32:00;1.70;99.90
30336;DHT22;17142;47.990;7.846;2024-03-07T23:34:30;1.60;99.90
30336;DHT22;17142;47.990;7.846;2024-03-07T23:37:00;1.50;99.90
30336;DHT22;17142;47.990;7.846;2024-03-07T23:39:27;1.40;99.90
30336;DHT22;17142;47.990;7.846;2024-03-07T23:41:53;1.40;99.90
30336;DHT22;17142;47.990;7.846;2024-03-07T23:44:19;1.40;99.90
30336;DHT22;17142;47.990;7.846;2024-03-07T23:46:47;1.40;99.90
30336;DHT22;17142;47.990;7.846;2024-03-07T23:49:14;1.40;99.90
30336;DHT22;17142;47.990;7.846;2024-03-07T23:51:45;1.40;99.90
30336;DHT22;17142;47.990;7.846;2024-03-07T23:54:11;1.50;99.90
30336;DHT22;17142;47.990;7.846;2024-03-07T23:56:45;1.40;99.90
30336;DHT22;17142;47.990;7.846;2024-03-07T23:59:14;1.50;99.90
